sensor_id;sensor_type;location;lat;lon;timestamp;pressure;altitude;pressure_sealevel;temperature;humidity
42105;BME280;70664;51.472;5.712;2024-02-26T00:02:25;99639.88;;;16.84;62.06
42105;BME280;70664;51.472;5.712;2024-02-26T00:04:51;99650.34;;;16.83;62.00
42105;BME280;70664;51.472;5.712;2024-02-26T00:07:17;99651.31;;;16.80;62.01
42105;BME280;70664;51.472;5.712;2024-02-26T00:09:43;99655.72;;;16.78;61.89
42105;BME280;70664;51.472;5.712;2024-02-26T00:12:09;99652.28;;;16.77;62.26
42105;BME280;70664;51.472;5.712;2024-02-26T00:14:34;99652.41;;;16.74;62.06
42105;BME280;70664;51.472;5.712;2024-02-26T00:17:01;99659.34;;;16.74;61.98
42105;BME280;70664;51.472;5.712;2024-02-26T00:19:28;99655.13;;;16.71;62.15
42105;BME280;70664;51.472;5.712;2024-02-26T00:21:53;99660.41;;;16.70;62.23
42105;BME280;70664;51.472;5.712;2024-02-26T00:24:21;99651.69;;;16.71;62.40
42105;BME280;70664;51.472;5.712;2024-02-26T00:26:47;99645.72;;;16.69;62.41
42105;BME280;70664;51.472;5.712;2024-02-26T00:29:19;99646.75;;;16.65;62.52
42105;BME280;70664;51.472;5.712;2024-02-26T00:31:45;99652.78;;;16.65;62.25
42105;BME280;70664;51.472;5.712;2024-02-26T00:34:11;99653.69;;;16.64;62.21
42105;BME280;70664;51.472;5.712;2024-02-26T00:36:36;99655.44;;;16.63;62.47
42105;BME280;70664;51.472;5.712;2024-02-26T00:39:02;99645.97;;;16.62;62.55
42105;BME280;70664;51.472;5.712;2024-02-26T00:41:29;99650.44;;;16.59;62.59
42105;BME280;70664;51.472;5.712;2024-02-26T00:43:55;99644.41;;;16.58;62.66
42105;BME280;70664;51.472;5.712;2024-02-26T00:46:21;99636.69;;;16.57;62.67
42105;BME280;70664;51.472;5.712;2024-02-26T00:48:47;99639.41;;;16.54;62.63
42105;BME280;70664;51.472;5.712;2024-02-26T00:51:12;99641.16;;;16.53;62.70
42105;BME280;70664;51.472;5.712;2024-02-26T00:53:38;99640.38;;;16.51;62.72
42105;BME280;70664;51.472;5.712;2024-02-26T00:56:04;99641.22;;;16.52;62.60
42105;BME280;70664;51.472;5.712;2024-02-26T00:58:30;99630.91;;;16.50;62.23
42105;BME280;70664;51.472;5.712;2024-02-26T01:00:56;99629.28;;;16.47;62.44
42105;BME280;70664;51.472;5.712;2024-02-26T01:03:21;99632.69;;;16.48;62.73
42105;BME280;70664;51.472;5.712;2024-02-26T01:05:47;99631.00;;;16.47;62.48
42105;BME280;70664;51.472;5.712;2024-02-26T01:08:13;99636.19;;;16.47;62.62
42105;BME280;70664;51.472;5.712;2024-02-26T01:10:39;99646.66;;;16.45;62.33
42105;BME280;70664;51.472;5.712;2024-02-26T01:13:05;99644.13;;;16.44;62.36
42105;BME280;70664;51.472;5.712;2024-02-26T01:15:30;99639.00;;;16.42;62.71
42105;BME280;70664;51.472;5.712;2024-02-26T01:17:57;99654.56;;;16.42;62.65
42105;BME280;70664;51.472;5.712;2024-02-26T01:20:23;99645.94;;;16.42;62.76
42105;BME280;70664;51.472;5.712;2024-02-26T01:22:49;99657.22;;;16.41;62.60
42105;BME280;70664;51.472;5.712;2024-02-26T01:25:15;99647.81;;;16.38;62.62
42105;BME280;70664;51.472;5.712;2024-02-26T01:27:41;99653.00;;;16.38;62.80
42105;BME280;70664;51.472;5.712;2024-02-26T01:30:10;99647.00;;;16.36;62.35
42105;BME280;70664;51.472;5.712;2024-02-26T01:32:36;99656.59;;;16.34;62.90
42105;BME280;70664;51.472;5.712;2024-02-26T01:35:02;99654.88;;;16.35;62.85
42105;BME280;70664;51.472;5.712;2024-02-26T01:37:36;99656.69;;;16.32;62.51
42105;BME280;70664;51.472;5.712;2024-02-26T01:40:02;99656.69;;;16.32;62.88
42105;BME280;70664;51.472;5.712;2024-02-26T01:42:30;99662.78;;;16.31;62.59
42105;BME280;70664;51.472;5.712;2024-02-26T01:44:58;99663.69;;;16.30;62.58
42105;BME280;70664;51.472;5.712;2024-02-26T01:47:24;99661.97;;;16.29;62.65
42105;BME280;70664;51.472;5.712;2024-02-26T01:49:51;99671.53;;;16.29;62.60
42105;BME280;70664;51.472;5.712;2024-02-26T01:52:17;99676.75;;;16.27;62.96
42105;BME280;70664;51.472;5.712;2024-02-26T01:54:45;99675.03;;;16.28;62.86
42105;BME280;70664;51.472;5.712;2024-02-26T01:57:11;99671.66;;;16.26;62.95
42105;BME280;70664;51.472;5.712;2024-02-26T01:59:40;99671.66;;;16.26;62.78
42105;BME280;70664;51.472;5.712;2024-02-26T02:02:08;99665.69;;;16.24;62.65
42105;BME280;70664;51.472;5.712;2024-02-26T02:04:36;99668.31;;;16.22;62.88
42105;BME280;70664;51.472;5.712;2024-02-26T02:07:03;99668.38;;;16.21;62.90
42105;BME280;70664;51.472;5.712;2024-02-26T02:09:29;99664.09;;;16.20;62.79
42105;BME280;70664;51.472;5.712;2024-02-26T02:11:55;99671.03;;;16.19;62.62
42105;BME280;70664;51.472;5.712;2024-02-26T02:14:21;99676.22;;;16.19;63.02
42105;BME280;70664;51.472;5.712;2024-02-26T02:16:47;99666.81;;;16.16;62.79
42105;BME280;70664;51.472;5.712;2024-02-26T02:19:14;99664.22;;;16.16;62.91
42105;BME280;70664;51.472;5.712;2024-02-26T02:21:40;99664.22;;;16.16;62.73
42105;BME280;70664;51.472;5.712;2024-02-26T02:24:05;99662.53;;;16.15;62.71
42105;BME280;70664;51.472;5.712;2024-02-26T02:26:31;99656.56;;;16.13;63.03
42105;BME280;70664;51.472;5.712;2024-02-26T02:28:58;99660.00;;;16.14;62.74
42105;BME280;70664;51.472;5.712;2024-02-26T02:31:25;99653.16;;;16.11;63.08
42105;BME280;70664;51.472;5.712;2024-02-26T02:33:52;99660.94;;;16.11;62.94
42105;BME280;70664;51.472;5.712;2024-02-26T02:36:17;99660.13;;;16.11;62.78
42105;BME280;70664;51.472;5.712;2024-02-26T02:38:51;99666.22;;;16.10;63.05
42105;BME280;70664;51.472;5.712;2024-02-26T02:41:18;99660.16;;;16.09;62.93
42105;BME280;70664;51.472;5.712;2024-02-26T02:43:44;99663.66;;;16.08;63.06
42105;BME280;70664;51.472;5.712;2024-02-26T02:46:10;99668.91;;;16.07;63.24
42105;BME280;70664;51.472;5.712;2024-02-26T02:48:41;99676.69;;;16.07;63.01
42105;BME280;70664;51.472;5.712;2024-02-26T02:51:07;99675.84;;;16.06;63.17
42105;BME280;70664;51.472;5.712;2024-02-26T02:53:33;99670.72;;;16.05;63.25
42105;BME280;70664;51.472;5.712;2024-02-26T02:55:58;99681.09;;;16.05;62.84
42105;BME280;70664;51.472;5.712;2024-02-26T02:58:24;99680.22;;;16.04;62.91
42105;BME280;70664;51.472;5.712;2024-02-26T03:00:50;99686.31;;;16.03;63.35
42105;BME280;70664;51.472;5.712;2024-02-26T03:03:16;99678.63;;;16.01;63.41
42105;BME280;70664;51.472;5.712;2024-02-26T03:05:42;99677.78;;;16.01;63.14
42105;BME280;70664;51.472;5.712;2024-02-26T03:08:08;99686.47;;;16.00;63.24
42105;BME280;70664;51.472;5.712;2024-02-26T03:10:34;99682.09;;;16.00;62.92
42105;BME280;70664;51.472;5.712;2024-02-26T03:13:00;99680.50;;;15.98;63.21
42105;BME280;70664;51.472;5.712;2024-02-26T03:15:26;99677.03;;;15.97;63.12
42105;BME280;70664;51.472;5.712;2024-02-26T03:17:52;99679.63;;;15.97;63.23
42105;BME280;70664;51.472;5.712;2024-02-26T03:20:18;99673.63;;;15.97;63.17
42105;BME280;70664;51.472;5.712;2024-02-26T03:22:45;99680.53;;;15.96;63.27
42105;BME280;70664;51.472;5.712;2024-02-26T03:25:11;99675.41;;;15.95;63.32
42105;BME280;70664;51.472;5.712;2024-02-26T03:27:37;99679.75;;;15.94;62.95
42105;BME280;70664;51.472;5.712;2024-02-26T03:30:03;99673.72;;;15.94;63.30
42105;BME280;70664;51.472;5.712;2024-02-26T03:32:29;99677.22;;;15.93;63.25
42105;BME280;70664;51.472;5.712;2024-02-26T03:34:55;99674.63;;;15.93;62.98
42105;BME280;70664;51.472;5.712;2024-02-26T03:37:21;99670.38;;;15.90;63.30
42105;BME280;70664;51.472;5.712;2024-02-26T03:39:47;99675.56;;;15.90;63.19
42105;BME280;70664;51.472;5.712;2024-02-26T03:42:13;99672.22;;;15.88;63.35
42105;BME280;70664;51.472;5.712;2024-02-26T03:44:39;99673.13;;;15.87;63.26
42105;BME280;70664;51.472;5.712;2024-02-26T03:47:04;99677.41;;;15.88;63.07
42105;BME280;70664;51.472;5.712;2024-02-26T03:49:30;99675.72;;;15.87;63.03
42105;BME280;70664;51.472;5.712;2024-02-26T03:51:56;99677.44;;;15.86;63.19
42105;BME280;70664;51.472;5.712;2024-02-26T03:54:22;99680.91;;;15.85;63.01
42105;BME280;70664;51.472;5.712;2024-02-26T03:56:48;99675.72;;;15.85;63.28
42105;BME280;70664;51.472;5.712;2024-02-26T03:59:13;99678.38;;;15.84;63.04
42105;BME280;70664;51.472;5.712;2024-02-26T04:01:39;99681.00;;;15.82;63.30
42105;BME280;70664;51.472;5.712;2024-02-26T04:04:10;99687.88;;;15.83;63.34
42105;BME280;70664;51.472;5.712;2024-02-26T04:06:35;99687.06;;;15.83;63.47
42105;BME280;70664;51.472;5.712;2024-02-26T04:09:01;99689.69;;;15.81;63.05
42105;BME280;70664;51.472;5.712;2024-02-26T04:11:29;99690.56;;;15.82;63.14
42105;BME280;70664;51.472;5.712;2024-02-26T04:13:55;99686.28;;;15.81;63.03
42105;BME280;70664;51.472;5.712;2024-02-26T04:16:21;99684.56;;;15.80;63.21
42105;BME280;70664;51.472;5.712;2024-02-26T04:18:46;99683.72;;;15.79;63.03
42105;BME280;70664;51.472;5.712;2024-02-26T04:21:13;99686.38;;;15.78;63.50
42105;BME280;70664;51.472;5.712;2024-02-26T04:23:38;99695.06;;;15.77;63.36
42105;BME280;70664;51.472;5.712;2024-02-26T04:26:05;99689.88;;;15.77;63.29
42105;BME280;70664;51.472;5.712;2024-02-26T04:28:30;99691.59;;;15.76;63.23
42105;BME280;70664;51.472;5.712;2024-02-26T04:30:56;99696.03;;;15.74;63.04
42105;BME280;70664;51.472;5.712;2024-02-26T04:33:22;99694.25;;;15.75;63.22
42105;BME280;70664;51.472;5.712;2024-02-26T04:35:48;99696.91;;;15.73;63.16
42105;BME280;70664;51.472;5.712;2024-02-26T04:38:14;99698.66;;;15.72;63.52
42105;BME280;70664;51.472;5.712;2024-02-26T04:40:39;99703.84;;;15.72;63.33
42105;BME280;70664;51.472;5.712;2024-02-26T04:43:05;99703.03;;;15.70;63.50
42105;BME280;70664;51.472;5.712;2024-02-26T04:45:31;99705.59;;;15.72;63.34
42105;BME280;70664;51.472;5.712;2024-02-26T04:47:57;99699.63;;;15.70;63.29
42105;BME280;70664;51.472;5.712;2024-02-26T04:50:23;99721.25;;;15.69;63.52
42105;BME280;70664;51.472;5.712;2024-02-26T04:52:48;99721.25;;;15.69;63.26
42105;BME280;70664;51.472;5.712;2024-02-26T04:55:15;99720.38;;;15.68;63.26
42105;BME280;70664;51.472;5.712;2024-02-26T04:57:40;99716.09;;;15.67;63.61
42105;BME280;70664;51.472;5.712;2024-02-26T05:00:07;99716.19;;;15.66;63.39
42105;BME280;70664;51.472;5.712;2024-02-26T05:02:33;99718.78;;;15.66;63.28
42105;BME280;70664;51.472;5.712;2024-02-26T05:05:05;99710.19;;;15.64;63.54
42105;BME280;70664;51.472;5.712;2024-02-26T05:07:31;99724.00;;;15.64;63.00
42105;BME280;70664;51.472;5.712;2024-02-26T05:09:57;99712.78;;;15.64;63.62
42105;BME280;70664;51.472;5.712;2024-02-26T05:12:23;99707.66;;;15.62;63.12
42105;BME280;70664;51.472;5.712;2024-02-26T05:14:49;99712.91;;;15.61;63.27
42105;BME280;70664;51.472;5.712;2024-02-26T05:17:14;99713.75;;;15.61;63.16
42105;BME280;70664;51.472;5.712;2024-02-26T05:19:40;99717.25;;;15.60;63.13
42105;BME280;70664;51.472;5.712;2024-02-26T05:22:06;99721.56;;;15.60;63.23
42105;BME280;70664;51.472;5.712;2024-02-26T05:24:32;99721.56;;;15.60;63.17
42105;BME280;70664;51.472;5.712;2024-02-26T05:26:58;99725.97;;;15.57;63.14
42105;BME280;70664;51.472;5.712;2024-02-26T05:29:24;99722.47;;;15.58;63.30
42105;BME280;70664;51.472;5.712;2024-02-26T05:31:50;99726.81;;;15.58;63.22
42105;BME280;70664;51.472;5.712;2024-02-26T05:34:16;99732.94;;;15.55;63.39
42105;BME280;70664;51.472;5.712;2024-02-26T05:36:42;99740.72;;;15.55;63.26
42105;BME280;70664;51.472;5.712;2024-02-26T05:39:08;99747.66;;;15.55;63.36
42105;BME280;70664;51.472;5.712;2024-02-26T05:41:33;99753.72;;;15.54;63.30
42105;BME280;70664;51.472;5.712;2024-02-26T05:43:59;99740.81;;;15.52;63.31
42105;BME280;70664;51.472;5.712;2024-02-26T05:46:25;99751.19;;;15.52;63.01
42105;BME280;70664;51.472;5.712;2024-02-26T05:48:53;99752.06;;;15.51;63.08
42105;BME280;70664;51.472;5.712;2024-02-26T05:51:18;99753.84;;;15.51;63.56
42105;BME280;70664;51.472;5.712;2024-02-26T05:53:44;99752.06;;;15.51;63.42
42105;BME280;70664;51.472;5.712;2024-02-26T05:56:12;99759.00;;;15.51;63.30
42105;BME280;70664;51.472;5.712;2024-02-26T05:58:38;99763.41;;;15.49;63.40
42105;BME280;70664;51.472;5.712;2024-02-26T06:01:04;99766.00;;;15.49;63.30
42105;BME280;70664;51.472;5.712;2024-02-26T06:03:29;99767.72;;;15.48;63.29
42105;BME280;70664;51.472;5.712;2024-02-26T06:05:55;99771.25;;;15.47;63.17
42105;BME280;70664;51.472;5.712;2024-02-26T06:08:21;99780.72;;;15.47;63.34
42105;BME280;70664;51.472;5.712;2024-02-26T06:10:47;99787.59;;;15.48;63.35
42105;BME280;70664;51.472;5.712;2024-02-26T06:13:13;99778.16;;;15.47;63.65
42105;BME280;70664;51.472;5.712;2024-02-26T06:15:39;99779.03;;;15.46;63.23
42105;BME280;70664;51.472;5.712;2024-02-26T06:18:05;99780.84;;;15.43;63.45
42105;BME280;70664;51.472;5.712;2024-02-26T06:20:31;99779.09;;;15.44;63.59
42105;BME280;70664;51.472;5.712;2024-02-26T06:22:56;99787.78;;;15.43;63.67
42105;BME280;70664;51.472;5.712;2024-02-26T06:25:22;99792.97;;;15.43;63.23
42105;BME280;70664;51.472;5.712;2024-02-26T06:27:48;99787.81;;;15.41;63.67
42105;BME280;70664;51.472;5.712;2024-02-26T06:30:14;99791.25;;;15.42;63.32
42105;BME280;70664;51.472;5.712;2024-02-26T06:32:40;99793.06;;;15.40;63.46
42105;BME280;70664;51.472;5.712;2024-02-26T06:35:06;99803.44;;;15.38;63.35
42105;BME280;70664;51.472;5.712;2024-02-26T06:37:34;99808.59;;;15.40;63.20
42105;BME280;70664;51.472;5.712;2024-02-26T06:40:01;99800.84;;;15.38;63.24
42105;BME280;70664;51.472;5.712;2024-02-26T06:42:30;99809.50;;;15.39;63.35
42105;BME280;70664;51.472;5.712;2024-02-26T06:44:56;99811.28;;;15.37;63.14
42105;BME280;70664;51.472;5.712;2024-02-26T06:47:22;99812.13;;;15.37;63.51
42105;BME280;70664;51.472;5.712;2024-02-26T06:49:48;99810.41;;;15.36;63.40
42105;BME280;70664;51.472;5.712;2024-02-26T06:52:13;99815.66;;;15.35;63.38
42105;BME280;70664;51.472;5.712;2024-02-26T06:54:39;99818.25;;;15.35;63.23
42105;BME280;70664;51.472;5.712;2024-02-26T06:57:05;99816.56;;;15.34;63.29
42105;BME280;70664;51.472;5.712;2024-02-26T06:59:31;99819.16;;;15.34;63.61
42105;BME280;70664;51.472;5.712;2024-02-26T07:01:57;99821.81;;;15.32;63.52
42105;BME280;70664;51.472;5.712;2024-02-26T07:04:22;99825.22;;;15.33;63.58
42105;BME280;70664;51.472;5.712;2024-02-26T07:06:48;99825.28;;;15.31;63.19
42105;BME280;70664;51.472;5.712;2024-02-26T07:09:14;99827.00;;;15.31;63.24
42105;BME280;70664;51.472;5.712;2024-02-26T07:11:41;99833.09;;;15.30;63.22
42105;BME280;70664;51.472;5.712;2024-02-26T07:14:10;99840.88;;;15.30;63.28
42105;BME280;70664;51.472;5.712;2024-02-26T07:16:36;99851.22;;;15.30;63.53
42105;BME280;70664;51.472;5.712;2024-02-26T07:19:03;99852.97;;;15.29;63.27
42105;BME280;70664;51.472;5.712;2024-02-26T07:21:29;99853.00;;;15.27;63.46
42105;BME280;70664;51.472;5.712;2024-02-26T07:23:54;99860.78;;;15.27;63.31
42105;BME280;70664;51.472;5.712;2024-02-26T07:26:20;99863.38;;;15.27;63.65
42105;BME280;70664;51.472;5.712;2024-02-26T07:28:46;99872.03;;;15.26;63.65
42105;BME280;70664;51.472;5.712;2024-02-26T07:31:12;99876.41;;;15.24;63.34
42105;BME280;70664;51.472;5.712;2024-02-26T07:33:38;99885.94;;;15.24;63.54
42105;BME280;70664;51.472;5.712;2024-02-26T07:36:04;99891.13;;;15.24;63.34
42105;BME280;70664;51.472;5.712;2024-02-26T07:38:30;99893.66;;;15.25;63.32
42105;BME280;70664;51.472;5.712;2024-02-26T07:40:56;99895.44;;;15.23;63.67
42105;BME280;70664;51.472;5.712;2024-02-26T07:43:22;99900.66;;;15.22;63.34
42105;BME280;70664;51.472;5.712;2024-02-26T07:45:48;99892.03;;;15.21;63.51
42105;BME280;70664;51.472;5.712;2024-02-26T07:48:14;99894.63;;;15.21;63.63
42105;BME280;70664;51.472;5.712;2024-02-26T07:50:40;99897.28;;;15.20;63.64
42105;BME280;70664;51.472;5.712;2024-02-26T07:53:08;99895.59;;;15.19;63.52
42105;BME280;70664;51.472;5.712;2024-02-26T07:55:34;99910.22;;;15.20;63.62
42105;BME280;70664;51.472;5.712;2024-02-26T07:58:00;99906.81;;;15.19;63.52
42105;BME280;70664;51.472;5.712;2024-02-26T08:00:26;99910.22;;;15.20;63.42
42105;BME280;70664;51.472;5.712;2024-02-26T08:02:52;99919.75;;;15.19;63.71
42105;BME280;70664;51.472;5.712;2024-02-26T08:05:18;99918.00;;;15.20;63.44
42105;BME280;70664;51.472;5.712;2024-02-26T08:07:43;99908.53;;;15.19;63.75
42105;BME280;70664;51.472;5.712;2024-02-26T08:10:09;99918.81;;;15.20;63.87
42105;BME280;70664;51.472;5.712;2024-02-26T08:12:36;99923.19;;;15.20;63.93
42105;BME280;70664;51.472;5.712;2024-02-26T08:15:03;99924.06;;;15.19;63.66
42105;BME280;70664;51.472;5.712;2024-02-26T08:17:29;99921.47;;;15.19;64.20
42105;BME280;70664;51.472;5.712;2024-02-26T08:19:54;99922.38;;;15.18;64.17
42105;BME280;70664;51.472;5.712;2024-02-26T08:22:20;99931.00;;;15.18;64.04
42105;BME280;70664;51.472;5.712;2024-02-26T08:24:46;99934.47;;;15.17;63.94
42105;BME280;70664;51.472;5.712;2024-02-26T08:27:12;99934.50;;;15.16;63.97
42105;BME280;70664;51.472;5.712;2024-02-26T08:29:37;99942.25;;;15.17;64.62
42105;BME280;70664;51.472;5.712;2024-02-26T08:32:04;99943.97;;;15.17;64.35
42105;BME280;70664;51.472;5.712;2024-02-26T08:34:29;99944.03;;;15.15;64.30
42105;BME280;70664;51.472;5.712;2024-02-26T08:36:55;99949.22;;;15.15;64.41
42105;BME280;70664;51.472;5.712;2024-02-26T08:39:21;99947.47;;;15.16;64.04
42105;BME280;70664;51.472;5.712;2024-02-26T08:41:47;99949.25;;;15.13;64.11
42105;BME280;70664;51.472;5.712;2024-02-26T08:44:12;99962.16;;;15.15;64.49
42105;BME280;70664;51.472;5.712;2024-02-26T08:46:38;99952.69;;;15.14;64.37
42105;BME280;70664;51.472;5.712;2024-02-26T08:49:04;99948.41;;;15.13;64.51
42105;BME280;70664;51.472;5.712;2024-02-26T08:51:30;99967.38;;;15.13;64.50
42105;BME280;70664;51.472;5.712;2024-02-26T08:53:56;99973.44;;;15.12;64.34
42105;BME280;70664;51.472;5.712;2024-02-26T08:56:21;99965.66;;;15.12;64.46
42105;BME280;70664;51.472;5.712;2024-02-26T08:58:48;99973.44;;;15.12;64.45
42105;BME280;70664;51.472;5.712;2024-02-26T09:01:19;99977.78;;;15.12;64.58
42105;BME280;70664;51.472;5.712;2024-02-26T09:03:45;99976.13;;;15.09;64.54
42105;BME280;70664;51.472;5.712;2024-02-26T09:06:11;99976.97;;;15.10;64.32
42105;BME280;70664;51.472;5.712;2024-02-26T09:08:39;99984.78;;;15.08;64.56
42105;BME280;70664;51.472;5.712;2024-02-26T09:11:05;99989.94;;;15.10;64.58
42105;BME280;70664;51.472;5.712;2024-02-26T09:13:31;99992.53;;;15.08;64.35
42105;BME280;70664;51.472;5.712;2024-02-26T09:15:56;99990.84;;;15.07;64.44
42105;BME280;70664;51.472;5.712;2024-02-26T09:18:24;99993.41;;;15.09;64.60
42105;BME280;70664;51.472;5.712;2024-02-26T09:20:49;99999.47;;;15.08;64.39
42105;BME280;70664;51.472;5.712;2024-02-26T09:23:16;100002.91;;;15.08;64.87
42105;BME280;70664;51.472;5.712;2024-02-26T09:25:42;100008.94;;;15.09;64.79
42105;BME280;70664;51.472;5.712;2024-02-26T09:28:08;100015.81;;;15.10;64.93
42105;BME280;70664;51.472;5.712;2024-02-26T09:30:33;100021.81;;;15.10;65.18
42105;BME280;70664;51.472;5.712;2024-02-26T09:32:59;100017.53;;;15.09;65.41
42105;BME280;70664;51.472;5.712;2024-02-26T09:35:25;100018.41;;;15.10;65.31
42105;BME280;70664;51.472;5.712;2024-02-26T09:37:52;100018.41;;;15.10;65.58
42105;BME280;70664;51.472;5.712;2024-02-26T09:40:19;100023.56;;;15.10;65.43
42105;BME280;70664;51.472;5.712;2024-02-26T09:42:45;100027.06;;;15.09;65.52
42105;BME280;70664;51.472;5.712;2024-02-26T09:45:19;100032.25;;;15.07;65.34
42105;BME280;70664;51.472;5.712;2024-02-26T09:47:48;100033.97;;;15.08;65.45
42105;BME280;70664;51.472;5.712;2024-02-26T09:50:17;100038.31;;;15.08;65.68
42105;BME280;70664;51.472;5.712;2024-02-26T09:52:43;100046.06;;;15.08;65.39
42105;BME280;70664;51.472;5.712;2024-02-26T09:55:09;100045.22;;;15.07;65.57
42105;BME280;70664;51.472;5.712;2024-02-26T09:57:37;100050.38;;;15.07;65.81
42105;BME280;70664;51.472;5.712;2024-02-26T10:00:04;100049.56;;;15.07;65.54
42105;BME280;70664;51.472;5.712;2024-02-26T10:02:34;100055.63;;;15.06;65.50
42105;BME280;70664;51.472;5.712;2024-02-26T10:05:03;100059.03;;;15.06;65.79
42105;BME280;70664;51.472;5.712;2024-02-26T10:07:33;100068.50;;;15.07;65.80
42105;BME280;70664;51.472;5.712;2024-02-26T10:10:01;100068.50;;;15.07;65.43
42105;BME280;70664;51.472;5.712;2024-02-26T10:12:27;100076.09;;;15.13;65.30
42105;BME280;70664;51.472;5.712;2024-02-26T10:14:54;100075.84;;;15.23;65.37
42105;BME280;70664;51.472;5.712;2024-02-26T10:17:20;100079.28;;;15.23;65.39
42105;BME280;70664;51.472;5.712;2024-02-26T10:19:46;100080.97;;;15.26;64.96
42105;BME280;70664;51.472;5.712;2024-02-26T10:22:11;100100.78;;;15.27;65.06
42105;BME280;70664;51.472;5.712;2024-02-26T10:24:37;100095.53;;;15.28;64.87
42105;BME280;70664;51.472;5.712;2024-02-26T10:27:03;100103.38;;;15.27;65.11
42105;BME280;70664;51.472;5.712;2024-02-26T10:29:31;100105.09;;;15.26;64.89
42105;BME280;70664;51.472;5.712;2024-02-26T10:31:57;100105.16;;;15.25;65.01
42105;BME280;70664;51.472;5.712;2024-02-26T10:34:23;100101.69;;;15.26;65.11
42105;BME280;70664;51.472;5.712;2024-02-26T10:36:49;100110.34;;;15.25;64.86
42105;BME280;70664;51.472;5.712;2024-02-26T10:39:15;100114.66;;;15.24;64.90
42105;BME280;70664;51.472;5.712;2024-02-26T10:41:43;100114.66;;;15.24;65.07
42105;BME280;70664;51.472;5.712;2024-02-26T10:44:10;100125.09;;;15.21;65.21
42105;BME280;70664;51.472;5.712;2024-02-26T10:46:43;100125.97;;;15.20;65.52
42105;BME280;70664;51.472;5.712;2024-02-26T10:49:14;100135.59;;;15.17;65.55
42105;BME280;70664;51.472;5.712;2024-02-26T10:51:45;100133.06;;;15.13;65.71
42105;BME280;70664;51.472;5.712;2024-02-26T10:54:16;100137.41;;;15.13;65.44
42105;BME280;70664;51.472;5.712;2024-02-26T10:56:42;100139.13;;;15.12;65.81
42105;BME280;70664;51.472;5.712;2024-02-26T10:59:12;100146.88;;;15.14;65.98
42105;BME280;70664;51.472;5.712;2024-02-26T11:01:39;100147.69;;;15.16;66.01
42105;BME280;70664;51.472;5.712;2024-02-26T11:04:08;100152.78;;;15.19;66.10
42105;BME280;70664;51.472;5.712;2024-02-26T11:06:35;100148.31;;;15.24;66.28
42105;BME280;70664;51.472;5.712;2024-02-26T11:09:02;100158.59;;;15.27;66.18
42105;BME280;70664;51.472;5.712;2024-02-26T11:11:31;100164.63;;;15.28;66.16
42105;BME280;70664;51.472;5.712;2024-02-26T11:13:57;100165.53;;;15.27;66.66
42105;BME280;70664;51.472;5.712;2024-02-26T11:16:26;100163.81;;;15.26;66.93
42105;BME280;70664;51.472;5.712;2024-02-26T11:18:53;100167.25;;;15.26;67.15
42105;BME280;70664;51.472;5.712;2024-02-26T11:21:21;100162.94;;;15.27;67.43
42105;BME280;70664;51.472;5.712;2024-02-26T11:24:06;100178.25;;;15.35;68.01
42105;BME280;70664;51.472;5.712;2024-02-26T11:26:37;100180.53;;;15.47;67.81
42105;BME280;70664;51.472;5.712;2024-02-26T11:29:05;100176.63;;;15.62;67.24
42105;BME280;70664;51.472;5.712;2024-02-26T11:31:33;100185.94;;;15.69;67.42
42105;BME280;70664;51.472;5.712;2024-02-26T11:33:59;100184.88;;;15.77;67.11
42105;BME280;70664;51.472;5.712;2024-02-26T11:36:25;100190.72;;;15.83;66.77
42105;BME280;70664;51.472;5.712;2024-02-26T11:38:51;100179.31;;;15.91;66.81
42105;BME280;70664;51.472;5.712;2024-02-26T11:41:18;100192.94;;;15.97;66.88
42105;BME280;70664;51.472;5.712;2024-02-26T11:44:00;100195.31;;;16.05;66.50
42105;BME280;70664;51.472;5.712;2024-02-26T11:46:42;100188.28;;;16.09;66.43
42105;BME280;70664;51.472;5.712;2024-02-26T11:51:57;100190.59;;;16.18;66.58
42105;BME280;70664;51.472;5.712;2024-02-26T11:54:48;100189.56;;;16.24;66.40
42105;BME280;70664;51.472;5.712;2024-02-26T12:02:46;100193.56;;;16.34;66.94
42105;BME280;70664;51.472;5.712;2024-02-26T12:05:22;100197.81;;;16.37;67.63
42105;BME280;70664;51.472;5.712;2024-02-26T12:08:00;100196.88;;;16.39;67.72
42105;BME280;70664;51.472;5.712;2024-02-26T12:10:31;100213.97;;;16.45;67.88
42105;BME280;70664;51.472;5.712;2024-02-26T12:13:15;100207.91;;;16.46;67.96
42105;BME280;70664;51.472;5.712;2024-02-26T12:15:54;100210.38;;;16.51;68.02
42105;BME280;70664;51.472;5.712;2024-02-26T12:18:21;100217.19;;;16.53;67.56
42105;BME280;70664;51.472;5.712;2024-02-26T12:21:02;100218.72;;;16.59;67.47
42105;BME280;70664;51.472;5.712;2024-02-26T12:23:28;100216.94;;;16.61;67.19
42105;BME280;70664;51.472;5.712;2024-02-26T12:25:58;100225.50;;;16.65;67.36
42105;BME280;70664;51.472;5.712;2024-02-26T12:28:28;100225.44;;;16.66;67.35
42105;BME280;70664;51.472;5.712;2024-02-26T12:30:54;100222.81;;;16.68;68.50
42105;BME280;70664;51.472;5.712;2024-02-26T12:33:21;100228.75;;;16.71;68.68
42105;BME280;70664;51.472;5.712;2024-02-26T12:35:47;100227.78;;;16.74;69.00
42105;BME280;70664;51.472;5.712;2024-02-26T12:38:15;100239.03;;;16.74;68.43
42105;BME280;70664;51.472;5.712;2024-02-26T12:40:41;100238.13;;;16.75;68.59
42105;BME280;70664;51.472;5.712;2024-02-26T12:43:07;100235.44;;;16.78;68.67
42105;BME280;70664;51.472;5.712;2024-02-26T12:45:40;100255.31;;;16.80;68.49
42105;BME280;70664;51.472;5.712;2024-02-26T12:48:07;100257.75;;;16.84;69.13
42105;BME280;70664;51.472;5.712;2024-02-26T12:50:33;100253.34;;;16.86;69.31
42105;BME280;70664;51.472;5.712;2024-02-26T12:52:59;100256.75;;;16.88;69.33
42105;BME280;70664;51.472;5.712;2024-02-26T12:55:26;100272.28;;;16.90;69.06
42105;BME280;70664;51.472;5.712;2024-02-26T12:57:52;100272.28;;;16.90;68.93
42105;BME280;70664;51.472;5.712;2024-02-26T13:00:24;100271.47;;;16.88;69.12
42105;BME280;70664;51.472;5.712;2024-02-26T13:02:50;100275.03;;;16.85;68.98
42105;BME280;70664;51.472;5.712;2024-02-26T13:05:18;100277.69;;;16.84;68.58